• Join FlightAware (Why Join?)
  • Login
  • US Flag 
06:58AM EDT


 

Airport Tracker/Info


-or-


 

Live Flight TrackerFlight Track Log ✈ LXJ342 ✈ 09-May-2013 ✈ KMDW - KPGD

Flight Track Log - Related Links

Times and Time Zones

All times are in EDT time to prevent confusion due to time zone crossing. See the LXJ342 flight status page for this flight to view local times or setup timezone preferences in your user account.

Time Position Orientation Groundspeed Altitude Reporting Facility
EDT Latitude Longitude Course Direction KTS MPH feet Rate Location/Type
12:59PM 41.7500 -87.8000 176° South 212 244 3,100  Level Chicago TRACON
01:00PM 41.6833 -87.8500 209° Southwest 257 296 6,500 3,240 Climbing Chicago TRACON
01:02PM 41.5992 -87.8581 184° South 262 302 10,400 3,000 Climbing Chicago Center
01:03PM 41.5194 -87.8664 184° South 281 323 13,300 2,880 Climbing Chicago Center
01:04PM 41.4303 -87.8761 185° South 314 361 16,400 2,760 Climbing Chicago Center
01:05PM 41.1041 -87.8822 176° South  Level FlightAware Approximate
01:05PM 41.3322 -87.8856 184° South 342 394 19,100  Level Chicago Center
01:06PM 41.2294 -87.8933 183° South 361 415 21,700 2,460 Climbing Chicago Center
01:07PM 41.1250 -87.8889 178° South 370 426 24,300 2,460 Climbing Chicago Center
01:08PM 41.0222 -87.8844 178° South 371 427 26,900 2,280 Climbing Chicago Center
01:09PM 40.9011 -87.8819 179° South 366 421 29,100 1,680 Climbing Chicago Center
01:10PM 40.7942 -87.8775 178° South 378 435 30,400 1,200 Climbing Chicago Center
01:11PM 40.6822 -87.8742 179° South 401 461 31,700 780 Climbing Chicago Center
01:13PM 40.4603 -87.9228 189° South 424 488 32,700 600 Climbing Indianapolis Center
01:14PM 40.3242 -87.9425 186° South 450 518 33,600 780 Climbing Chicago Center
01:15PM 40.1839 -87.9050 168° South 476 548 34,500 840 Climbing Chicago Center
01:16PM 40.0794 -87.8722 166° South 475 547 35,200 900 Climbing Indianapolis Center
01:17PM 39.9511 -87.8317 166° South 477 549 36,200 960 Climbing Indianapolis Center
01:18PM 39.7992 -87.7853 167° South 472 543 37,200 840 Climbing Indianapolis Center
01:19PM 39.6728 -87.7444 166° South 469 540 38,000 600 Climbing Indianapolis Center
01:20PM 39.5481 -87.7047 166° South 466 536 38,500 480 Climbing Indianapolis Center
01:21PM 39.4214 -87.6661 167° South 470 541 39,000 240 Climbing Indianapolis Center
01:22PM 39.2936 -87.6261 166° South 474 545 39,000  Level Indianapolis Center
01:23PM 39.1350 -87.5761 166° South 489 563 39,000  Level Indianapolis Center
01:24PM 39.0125 -87.5542 172° South 484 557 39,000  Level Indianapolis Center
01:25PM 38.8758 -87.5519 179° South 487 560 39,000  Level Indianapolis Center
01:26PM 38.7186 -87.5486 179° South 471 542 39,000  Level Indianapolis Center
01:27PM 38.5886 -87.5406 177° South 469 540 39,000  Level Indianapolis Center
01:28PM 38.4592 -87.5069 169° South 477 549 39,000  Level Indianapolis Center
01:29PM 38.3336 -87.4511 161° South 481 554 39,000  Level Indianapolis Center
01:30PM 38.2092 -87.3947 160° South 480 552 39,000  Level Indianapolis Center
01:31PM 38.0631 -87.3278 160° South 471 542 39,000  Level Indianapolis Center
01:32PM 37.9425 -87.2736 160° South 464 534 39,000  Level Indianapolis Center
01:33PM 37.8211 -87.2186 160° South 463 533 39,000  Level Indianapolis Center
01:34PM 37.6983 -87.1628 160° South 467 537 39,000  Level Indianapolis Center
01:35PM 37.5744 -87.1075 161° South 470 541 39,000  Level Indianapolis Center
01:36PM 37.4444 -87.0539 162° South 469 540 39,000  Level Indianapolis Center
01:37PM 37.3428 -87.0047 159° South 472 543 39,000  Level Memphis Center
01:38PM 37.2078 -86.9453 161° South 472 543 39,000  Level Memphis Center
01:39PM 37.0878 -86.8931 161° South 472 543 39,000  Level Memphis Center
01:40PM 36.9653 -86.8361 160° South 472 543 39,000  Level Memphis Center
01:41PM 36.8408 -86.7819 161° South 472 543 39,000  Level Memphis Center
01:42PM 36.7183 -86.7281 161° South 472 543 39,000  Level Memphis Center
01:43PM 36.5978 -86.6739 160° South 472 543 39,000  Level Memphis Center
01:44PM 36.4858 -86.6247 161° South 472 543 39,000  Level Memphis Center
01:45PM 36.3614 -86.5714 161° South 472 543 39,000  Level Memphis Center
01:46PM 36.2367 -86.5178 161° South 472 543 39,000  Level Memphis Center
01:47PM 36.1122 -86.4672 162° South 472 543 39,000  Level Memphis Center
01:48PM 35.9769 -86.4094 161° South 472 543 39,000  Level Memphis Center
01:49PM 35.8564 -86.3589 161° South 472 543 39,000  Level Memphis Center
01:52PM 35.5797 -86.2425 161° South 455 524 39,000  Level Atlanta Center
01:53PM 35.4594 -86.1933 162° South 460 529 39,000  Level Atlanta Center
01:54PM 35.3394 -86.1417 161° South 460 529 39,000  Level Atlanta Center
01:55PM 35.2089 -86.0875 161° South 460 529 39,000  Level Atlanta Center
01:56PM 35.0928 -86.0392 161° South 454 522 39,000  Level Atlanta Center
01:57PM 34.9706 -85.9881 161° South 461 531 39,000  Level Atlanta Center
01:58PM 34.8503 -85.9319 159° South 461 531 39,000  Level Atlanta Center
01:59PM 34.7300 -85.8839 162° South 461 531 39,000  Level Atlanta Center
02:00PM 34.6097 -85.8331 161° South 461 531 39,000  Level Atlanta Center
02:01PM 34.4956 -85.7931 164° South 468 539 39,000  Level Atlanta Center
02:02PM 34.3647 -85.7400 161° South 458 527 39,000  Level Atlanta Center
02:03PM 34.2444 -85.6897 161° South 458 527 39,000  Level Atlanta Center
02:04PM 34.1219 -85.6422 162° South 458 527 39,000  Level Atlanta Center
02:05PM 34.0036 -85.5900 160° South 458 527 39,000  Level Atlanta Center
02:06PM 33.8853 -85.5428 162° South 458 527 39,000  Level Atlanta Center
02:07PM 33.7628 -85.4956 162° South 457 526 39,000  Level Atlanta Center
02:08PM 33.6442 -85.4486 162° South 457 526 39,000  Level Atlanta Center
02:09PM 33.5217 -85.3994 161° South 464 534 39,000  Level Atlanta Center
02:10PM 33.4033 -85.3528 162° South 459 528 39,000  Level Atlanta Center
02:11PM 33.2828 -85.3036 161° South 459 528 39,000  Level Atlanta Center
02:12PM 33.1600 -85.2547 162° South 464 534 39,000  Level Atlanta Center
02:13PM 33.0417 -85.1986 158° South 456 525 39,000  Level Atlanta Center
02:14PM 32.9167 -85.1547 164° South 456 525 39,000  Level Atlanta Center
02:15PM 32.8042 -85.1239 167° South 456 525 39,000  Level Atlanta Center
02:16PM 32.6692 -85.0728 162° South 456 525 39,000  Level Atlanta Center
02:17PM 32.5503 -85.0319 164° South 457 526 39,000  Level Atlanta Center
02:18PM 32.4275 -84.9911 164° South 457 526 39,000  Level Atlanta Center
02:19PM 32.3025 -84.9506 165° South 452 520 39,000  Level Atlanta Center
02:21PM 32.0822 -84.8761 164° South 482 555 39,000  Level Jacksonville Center
02:22PM 31.9594 -84.8344 164° South 471 542 39,000  Level Jacksonville Center
02:23PM 31.8267 -84.7925 165° South 465 535 39,000  Level Jacksonville Center
02:24PM 31.7039 -84.7533 165° South 460 529 39,000  Level Jacksonville Center
02:25PM 31.5794 -84.7119 164° South 455 524 39,000  Level Jacksonville Center
02:26PM 31.4567 -84.6728 165° South 455 524 39,000  Level Jacksonville Center
02:27PM 31.3300 -84.6267 163° South 461 531 39,000  Level Jacksonville Center
02:28PM 31.2097 -84.5686 158° South 461 531 39,000  Level Jacksonville Center
02:29PM 31.0894 -84.5083 157° South 466 536 39,000  Level Jacksonville Center
02:30PM 30.9669 -84.4481 157° South 471 542 39,000  Level Jacksonville Center
02:31PM 30.8464 -84.3903 158° South 471 542 39,000  Level Jacksonville Center
02:32PM 30.7239 -84.3306 157° South 476 548 39,000  Level Jacksonville Center
02:33PM 30.6036 -84.2731 158° South 476 548 39,000  Level Jacksonville Center
02:34PM 30.4956 -84.2208 157° South 476 548 39,000  Level Jacksonville Center
02:35PM 30.3667 -84.1567 157° South 471 542 39,000  Level Jacksonville Center
02:36PM 30.2461 -84.0997 158° South 471 542 39,000  Level Jacksonville Center
02:37PM 30.1236 -84.0428 158° South 471 542 39,000  Level Jacksonville Center
02:38PM 29.9989 -83.9839 158° South 476 548 39,000  Level Jacksonville Center
02:39PM 29.8761 -83.9225 157° South 476 548 39,000  Level Jacksonville Center
02:40PM 29.7597 -83.8544 153° Southeast 476 548 39,000  Level Jacksonville Center
02:41PM 29.6414 -83.7814 152° Southeast 476 548 39,000 -240 Level Jacksonville Center
02:42PM 29.5247 -83.7064 151° Southeast 481 554 38,600 -1,200 Descending Jacksonville Center
02:43PM 29.4042 -83.6292 151° Southeast 486 559 36,700 -2,400 Descending Jacksonville Center
02:44PM 29.2836 -83.5519 151° Southeast 491 565 33,900 -3,120 Descending Jacksonville Center
02:45PM 29.1669 -83.4753 150° Southeast 491 565 30,500 -3,420 Descending Jacksonville Center
02:46PM 29.0525 -83.4056 152° Southeast 484 557 27,100 -1,800 Descending Jacksonville Center
02:47PM 28.9442 -83.3364 151° Southeast 466 536 27,000 -60 Descending Jacksonville Center
02:48PM 28.8361 -83.2669 151° Southeast 456 525 27,000  Level Jacksonville Center
02:49PM 28.7233 -83.1956 151° Southeast 456 525 27,000 -600 Level Jacksonville Center
02:50PM 28.6108 -83.1244 151° Southeast 456 525 25,800 -1,380 Descending Jacksonville Center
02:51PM 28.5044 -83.0556 150° Southeast 451 519 24,300 -1,500 Descending Jacksonville Center
02:52PM 28.4108 -83.0011 153° Southeast 439 505 22,800 -1,560 Descending Jacksonville Center
02:52PM 28.2933 -82.9244 150° Southeast 436 502 21,300 -1,560 Descending Miami Center
02:53PM 28.1958 -82.8650 152° Southeast 416 479 19,800 -1,500 Descending Miami Center
02:54PM 28.0961 -82.8033 151° Southeast 416 479 18,300 -1,440 Descending Miami Center
02:55PM 27.9967 -82.7417 151° Southeast 416 479 17,000 -660 Descending Miami Center
02:56PM 27.8989 -82.6825 152° Southeast 409 471 17,000  Level Miami Center
02:57PM 27.8667 -82.6667 157° South 399 459 17,000 -1,020 Level Tampa TRACON
02:57PM 27.8167 -82.6333 149° Southeast 404 465 16,100 -1,560 Descending Tampa TRACON
02:58PM 27.7167 -82.5667 149° Southeast 388 447 14,500 -1,620 Descending Tampa TRACON
02:59PM 27.6167 -82.5167 156° South 378 435 12,900 -1,620 Descending Tampa TRACON
03:00PM 27.5333 -82.4500 145° Southeast 373 429 11,300 -1,260 Descending Tampa TRACON
03:01PM 27.4333 -82.4167 164° South 327 376 10,400 -1,200 Descending Tampa TRACON
03:02PM 27.3667 -82.4000 167° South 295 339 9,000 -1,620 Descending Tampa TRACON
03:03PM 27.2853 -82.3689 161° South 302 348 7,000 -1,860 Descending Miami Center
03:04PM 27.2178 -82.3308 153° Southeast 289 333 5,100 -1,980 Descending Miami Center
03:05PM 27.1658 -82.2675 133° Southeast 271 312 3,100 -1,080 Descending Miami Center
03:06PM 27.1158 -82.2094 134° Southeast 266 306 3,000 -120 Descending Miami Center
03:08PM 27.0238 -82.1203 156° South  Level FlightAware Approximate
03:15PM 26.9167 -81.9833 130° Southeast  Level FlightAware Approximate
03:16PM 26.9189 -81.9909 130° Southeast  Level Estimated
03:17PM 26.9167 -81.9833 130° Southeast  Level FlightAware Approximate
03:18PM 26.9189 -81.9909 130° Southeast  Level Estimated
03:19PM 26.9167 -81.9833 130° Southeast  Level FlightAware Approximate